createdAt,value
2023-05-04T00:01:01.628Z,19.57
2023-05-04T00:03:29.502Z,19.54
2023-05-04T00:05:57.331Z,19.52
2023-05-04T00:08:24.897Z,19.51
2023-05-04T00:10:52.404Z,19.51
2023-05-04T00:13:20.088Z,19.48
2023-05-04T00:15:48.070Z,19.41
2023-05-04T00:18:15.385Z,19.43
2023-05-04T00:20:42.688Z,19.34
2023-05-04T00:23:10.427Z,19.33
2023-05-04T00:25:38.255Z,19.31
2023-05-04T00:28:05.908Z,19.20
2023-05-04T00:30:34.120Z,19.21
2023-05-04T00:33:02.709Z,19.09
2023-05-04T00:35:32.068Z,19.08
2023-05-04T00:40:43.966Z,19.07
2023-05-04T00:43:11.706Z,19.07
2023-05-04T00:45:39.315Z,19.04
2023-05-04T00:48:08.170Z,18.98
2023-05-04T00:50:36.256Z,18.91
2023-05-04T00:53:09.916Z,18.91
2023-05-04T00:55:42.025Z,18.76
2023-05-04T00:58:11.757Z,18.80
2023-05-04T01:00:39.292Z,18.72
2023-05-04T01:03:06.975Z,18.65
2023-05-04T01:05:37.273Z,18.63
2023-05-04T01:08:11.066Z,18.62
2023-05-04T01:10:46.145Z,18.62
2023-05-04T01:13:15.849Z,18.61
2023-05-04T01:15:43.490Z,18.61
2023-05-04T01:18:30.577Z,18.61
2023-05-04T01:21:03.074Z,18.57
2023-05-04T01:23:31.810Z,18.52
2023-05-04T01:26:08.027Z,18.58
2023-05-04T01:28:55.757Z,18.55
2023-05-04T01:31:24.320Z,18.46
2023-05-04T01:33:58.072Z,18.45
2023-05-04T01:36:34.931Z,18.40
2023-05-04T01:39:04.016Z,18.41
2023-05-04T01:44:19.961Z,18.38
2023-05-04T01:46:53.925Z,18.38
2023-05-04T01:49:22.079Z,18.35
2023-05-04T01:51:54.024Z,18.34
2023-05-04T01:54:21.733Z,18.32
2023-05-04T01:56:49.406Z,18.35
2023-05-04T01:59:17.225Z,18.33
2023-05-04T02:01:45.293Z,18.39
2023-05-04T02:04:13.407Z,18.50
2023-05-04T02:06:40.901Z,18.62
2023-05-04T02:09:09.247Z,18.75
2023-05-04T02:11:36.885Z,18.80
2023-05-04T02:14:05.183Z,18.96
2023-05-04T02:16:32.971Z,19.05
2023-05-04T02:19:00.675Z,19.13
2023-05-04T02:21:28.234Z,19.18
2023-05-04T02:23:56.848Z,19.27
2023-05-04T02:26:24.394Z,19.30
2023-05-04T02:28:52.532Z,19.32
2023-05-04T02:31:20.051Z,19.28
2023-05-04T02:33:48.919Z,19.30
2023-05-04T02:36:16.480Z,19.33
2023-05-04T02:38:45.416Z,19.29
2023-05-04T02:41:12.705Z,19.18
2023-05-04T02:43:40.206Z,19.26
2023-05-04T02:46:08.503Z,19.25
2023-05-04T02:48:35.825Z,19.25
2023-05-04T02:51:03.651Z,19.31
2023-05-04T02:53:33.216Z,19.33
2023-05-04T02:56:00.657Z,19.38
2023-05-04T02:58:28.073Z,19.39
2023-05-04T03:00:58.609Z,19.37
2023-05-04T03:03:25.982Z,19.35
2023-05-04T03:05:53.344Z,19.38
2023-05-04T03:08:21.444Z,19.37
2023-05-04T03:10:48.820Z,19.33
2023-05-04T03:13:18.232Z,19.37
2023-05-04T03:15:45.970Z,19.28
2023-05-04T03:18:13.504Z,19.27
2023-05-04T03:20:41.849Z,19.25
2023-05-04T03:23:09.548Z,19.24
2023-05-04T03:25:38.366Z,19.22
2023-05-04T03:28:06.317Z,19.21
2023-05-04T03:30:34.378Z,19.21
2023-05-04T03:33:02.636Z,19.17
2023-05-04T03:35:30.199Z,19.12
2023-05-04T03:37:58.217Z,19.14
2023-05-04T03:40:25.881Z,19.09
2023-05-04T03:42:55.573Z,19.00
2023-05-04T03:45:24.030Z,18.98
2023-05-04T03:47:51.565Z,18.90
2023-05-04T03:50:19.249Z,18.85
2023-05-04T03:52:47.096Z,18.80
2023-05-04T03:55:15.035Z,18.76
2023-05-04T03:57:42.411Z,18.76
2023-05-04T04:00:11.718Z,18.73
2023-05-04T04:02:39.468Z,18.79
2023-05-04T04:05:11.065Z,18.79
2023-05-04T04:07:39.504Z,18.73
2023-05-04T04:10:09.892Z,18.70
2023-05-04T04:12:37.296Z,18.63
2023-05-04T04:15:05.306Z,18.57
2023-05-04T04:17:32.844Z,18.63
2023-05-04T04:20:02.831Z,18.63
2023-05-04T04:22:30.566Z,18.59
2023-05-04T04:24:57.948Z,18.55
2023-05-04T04:27:25.696Z,18.51
2023-05-04T04:29:53.110Z,18.43
2023-05-04T04:32:22.043Z,18.29
2023-05-04T04:34:49.557Z,18.30
2023-05-04T04:37:17.098Z,18.22
2023-05-04T04:39:44.932Z,18.21
2023-05-04T04:42:14.297Z,18.23
2023-05-04T04:44:42.154Z,18.13
2023-05-04T04:47:09.824Z,18.03
2023-05-04T04:49:37.551Z,17.95
2023-05-04T04:52:05.699Z,17.95
2023-05-04T04:54:33.102Z,17.91
2023-05-04T04:57:00.602Z,17.84
2023-05-04T04:59:29.099Z,17.74
2023-05-04T05:01:59.100Z,17.72
2023-05-04T05:04:28.202Z,17.77
2023-05-04T05:06:56.271Z,17.67
2023-05-04T05:09:24.697Z,17.73
2023-05-04T05:11:52.269Z,17.66
2023-05-04T05:14:20.227Z,17.62
2023-05-04T05:16:47.776Z,17.63
2023-05-04T05:19:16.030Z,17.59
2023-05-04T05:21:44.471Z,17.47
2023-05-04T05:24:11.915Z,17.47
2023-05-04T05:26:39.971Z,17.42
2023-05-04T05:29:07.502Z,17.33
2023-05-04T05:31:35.421Z,17.33
2023-05-04T05:34:05.289Z,17.31
2023-05-04T05:36:35.285Z,17.26
2023-05-04T05:39:02.930Z,17.26
2023-05-04T05:41:30.354Z,17.18
2023-05-04T05:43:58.495Z,17.19
2023-05-04T05:46:25.956Z,17.17
2023-05-04T05:48:53.608Z,17.14
2023-05-04T05:51:22.124Z,17.12
2023-05-04T05:53:53.504Z,17.16
2023-05-04T05:56:21.062Z,17.20
2023-05-04T05:58:48.595Z,17.20
2023-05-04T06:01:19.503Z,17.27
2023-05-04T06:03:47.466Z,17.31
2023-05-04T06:06:16.167Z,17.31
2023-05-04T06:08:43.882Z,17.38
2023-05-04T06:11:13.146Z,17.44
2023-05-04T06:13:41.095Z,17.55
2023-05-04T06:16:08.814Z,17.71
2023-05-04T06:18:37.125Z,17.83
2023-05-04T06:21:05.315Z,18.06
2023-05-04T06:23:35.466Z,18.23
2023-05-04T06:26:06.269Z,18.29
2023-05-04T06:28:35.185Z,18.23
2023-05-04T06:31:02.973Z,18.25
2023-05-04T06:33:50.383Z,18.37
2023-05-04T06:36:17.986Z,18.48
2023-05-04T06:38:46.011Z,18.55
2023-05-04T06:44:01.482Z,18.66
2023-05-04T06:46:36.018Z,18.75
2023-05-04T06:49:04.946Z,18.76
2023-05-04T06:51:32.744Z,18.86
2023-05-04T06:54:01.872Z,18.91
2023-05-04T06:56:29.506Z,18.97
2023-05-04T06:58:57.083Z,19.05
2023-05-04T07:01:25.360Z,19.10
2023-05-04T07:03:53.009Z,19.18
2023-05-04T07:06:21.802Z,19.15
2023-05-04T07:08:49.670Z,19.22
2023-05-04T07:11:17.272Z,19.28
2023-05-04T07:13:46.372Z,19.24
2023-05-04T07:16:16.628Z,19.25
2023-05-04T07:18:48.431Z,19.19
2023-05-04T07:21:27.852Z,19.14
2023-05-04T07:24:22.707Z,19.13
2023-05-04T07:26:51.642Z,19.24
2023-05-04T07:29:19.442Z,19.30
2023-05-04T07:31:46.916Z,19.39
2023-05-04T07:34:17.632Z,19.39
2023-05-04T07:36:48.181Z,19.53
2023-05-04T07:39:19.359Z,19.65
2023-05-04T07:41:50.565Z,19.80
2023-05-04T07:44:22.821Z,19.93
2023-05-04T07:46:50.502Z,19.99
2023-05-04T07:49:18.515Z,20.13
2023-05-04T07:51:46.477Z,20.24
2023-05-04T07:58:01.621Z,20.31
2023-05-04T08:00:29.518Z,20.38
2023-05-04T08:02:57.622Z,20.51
2023-05-04T08:05:25.328Z,20.50
2023-05-04T08:07:57.193Z,20.57
2023-05-04T08:10:25.209Z,20.63
2023-05-04T08:12:52.886Z,20.63
2023-05-04T08:15:26.113Z,20.64
2023-05-04T08:17:55.951Z,20.68
2023-05-04T08:20:24.492Z,20.65
2023-05-04T08:22:55.123Z,20.76
2023-05-04T08:25:29.032Z,20.80
2023-05-04T08:27:57.573Z,20.90
2023-05-04T08:30:48.448Z,20.90
2023-05-04T08:33:18.161Z,20.99
2023-05-04T08:35:46.434Z,21.06
2023-05-04T08:38:19.665Z,21.06
2023-05-04T08:40:49.248Z,21.21
2023-05-04T08:43:18.349Z,21.24
2023-05-04T08:45:46.129Z,21.32
2023-05-04T08:48:15.053Z,21.28
2023-05-04T08:50:50.514Z,21.40
2023-05-04T08:53:22.549Z,21.50
2023-05-04T08:55:51.165Z,21.51
2023-05-04T08:58:20.041Z,21.57
2023-05-04T09:00:47.990Z,21.69
2023-05-04T09:48:39.767Z,22.84
2023-05-04T09:51:07.999Z,22.95
2023-05-04T09:53:35.594Z,23.04
2023-05-04T09:56:12.341Z,23.20
2023-05-04T09:58:41.873Z,23.21
2023-05-04T10:01:27.244Z,23.36
2023-05-04T10:03:56.680Z,23.40
2023-05-04T10:09:17.594Z,23.27
2023-05-04T10:11:50.629Z,23.30
2023-05-04T10:14:23.915Z,23.33
2023-05-04T10:17:15.549Z,23.57
2023-05-04T10:20:23.932Z,23.76
2023-05-04T11:06:23.738Z,25.28
2023-05-04T11:09:02.744Z,25.46
2023-05-04T11:11:32.184Z,25.68
2023-05-04T11:13:59.892Z,25.75
2023-05-04T11:16:27.992Z,25.74
2023-05-04T11:18:56.737Z,25.75
2023-05-04T11:21:29.021Z,25.70
2023-05-04T11:24:00.438Z,25.63
2023-05-04T11:26:29.920Z,25.66
2023-05-04T11:28:57.803Z,25.78
2023-05-04T11:31:25.439Z,25.81
2023-05-04T11:33:55.862Z,25.87
2023-05-04T11:36:23.681Z,25.90
2023-05-04T11:38:51.528Z,25.88
2023-05-04T11:41:19.326Z,25.86
2023-05-04T11:43:47.265Z,25.82
2023-05-04T11:46:15.446Z,25.70
2023-05-04T11:48:50.627Z,25.72
2023-05-04T11:51:18.342Z,25.96
2023-05-04T11:53:46.599Z,26.03
2023-05-04T11:56:14.373Z,26.06
2023-05-04T11:58:42.006Z,26.21
2023-05-04T12:01:11.132Z,26.29
2023-05-04T12:03:53.139Z,26.36
2023-05-04T12:06:34.178Z,26.43
2023-05-04T12:09:07.616Z,26.45
2023-05-04T12:11:36.273Z,26.52
2023-05-04T12:14:10.295Z,26.54
2023-05-04T12:16:38.726Z,26.61
2023-05-04T12:19:11.585Z,26.70
2023-05-04T12:21:50.510Z,26.71
2023-05-04T12:24:18.150Z,26.87
2023-05-04T12:26:46.516Z,26.92
2023-05-04T12:29:14.208Z,27.06
2023-05-04T12:31:41.815Z,27.09
2023-05-04T12:34:09.369Z,27.07
